Time;durP1;ratioP1;P1;durP2;ratioP2;P2;SDS_P1;SDS_P2;PMS_P1;PMS_P2;Temp;Humidity;BMP_temperature;BMP_pressure;BME280_temperature;BME280_humidity;BME280_pressure;Samples;Min_cycle;Max_cycle;Signal;HPM_P1;HPM_P2
2020/12/01 00:01:38;;;;;;;116.07;40.38;;;-2.80;99.90;;;;;;4467300;28;659040;-61
2020/12/01 00:04:25;;;;;;;138.77;46.47;;;-2.80;99.90;;;;;;4441150;28;657592;-62
2020/12/01 00:07:12;;;;;;;113.30;39.83;;;-2.80;99.90;;;;;;4471371;28;659102;-61
2020/12/01 00:09:59;;;;;;;110.47;40.53;;;-2.80;99.90;;;;;;4451142;28;657771;-63
2020/12/01 00:12:47;;;;;;;116.33;42.17;;;-2.70;99.90;;;;;;4471944;28;657605;-61
2020/12/01 00:15:34;;;;;;;121.83;41.93;;;-2.70;99.90;;;;;;4454605;28;657380;-61
2020/12/01 00:18:21;;;;;;;122.07;42.23;;;-2.70;99.90;;;;;;4448808;28;657146;-62
2020/12/01 00:21:12;;;;;;;129.75;44.50;;;-2.70;99.90;;;;;;4459452;28;657531;-61
2020/12/01 00:23:59;;;;;;;140.73;47.03;;;-2.70;99.90;;;;;;4430808;28;657785;-63
2020/12/01 00:26:46;;;;;;;129.52;45.35;;;-2.70;99.90;;;;;;4456830;28;657526;-61
2020/12/01 00:29:33;;;;;;;132.57;43.03;;;-2.60;99.90;;;;;;4466920;28;658241;-62
2020/12/01 00:32:20;;;;;;;132.07;43.20;;;-2.50;99.90;;;;;;4434996;28;657574;-61
2020/12/01 00:35:09;;;;;;;131.50;42.47;;;-2.50;99.90;;;;;;4467367;28;659036;-61
2020/12/01 00:37:56;;;;;;;101.03;36.90;;;-2.60;99.90;;;;;;4440297;28;658021;-62
2020/12/01 00:40:43;;;;;;;109.40;37.53;;;-2.60;99.90;;;;;;4467765;28;659180;-61
2020/12/01 00:43:30;;;;;;;107.70;37.90;;;-2.60;99.90;;;;;;4441440;28;657448;-62
2020/12/01 00:46:17;;;;;;;110.30;40.63;;;-2.50;99.90;;;;;;4467283;28;658902;-61
2020/12/01 00:49:04;;;;;;;126.87;43.63;;;-2.50;99.90;;;;;;4469459;28;659505;-62
2020/12/01 00:51:52;;;;;;;132.30;43.40;;;-2.60;99.90;;;;;;4446549;28;657627;-61
2020/12/01 00:54:39;;;;;;;129.93;44.97;;;-2.50;99.90;;;;;;4471159;28;657684;-62
2020/12/01 00:57:26;;;;;;;119.53;42.50;;;-2.60;99.90;;;;;;4452184;28;658291;-62
2020/12/01 01:00:15;;;;;;;125.30;43.93;;;-2.60;99.90;;;;;;4470783;28;657520;-62
2020/12/01 01:03:02;;;;;;;124.07;44.50;;;-2.60;99.90;;;;;;4433376;28;658616;-62
2020/12/01 01:05:49;;;;;;;127.13;44.27;;;-2.50;99.90;;;;;;4462299;28;657866;-63
2020/12/01 01:08:38;;;;;;;112.53;39.13;;;-2.60;99.90;;;;;;4474913;28;657895;-62
2020/12/01 01:11:29;;;;;;;115.03;38.57;;;-2.50;99.90;;;;;;4446790;28;657670;-62
2020/12/01 01:14:16;;;;;;;120.87;42.03;;;-2.70;99.90;;;;;;4446854;28;658825;-61
2020/12/01 01:17:03;;;;;;;112.00;39.87;;;-2.80;99.90;;;;;;4470583;28;657765;-61
2020/12/01 01:19:50;;;;;;;111.17;40.13;;;-2.90;99.90;;;;;;4451045;28;657507;-63
2020/12/01 01:22:37;;;;;;;111.40;38.60;;;-3.00;99.90;;;;;;4465683;28;659535;-61
2020/12/01 01:25:25;;;;;;;102.03;38.30;;;-3.10;99.90;;;;;;4455911;28;658346;-62
2020/12/01 01:28:12;;;;;;;97.93;37.37;;;-3.20;99.90;;;;;;4455573;28;658886;-61
2020/12/01 01:30:59;;;;;;;103.40;36.70;;;-3.30;99.90;;;;;;4437959;28;656570;-62
2020/12/01 01:33:46;;;;;;;105.13;36.25;;;-3.40;99.90;;;;;;4460813;28;658482;-61
2020/12/01 01:36:33;;;;;;;96.50;36.93;;;-3.50;99.90;;;;;;4461635;28;657585;-61
2020/12/01 01:39:20;;;;;;;106.63;35.63;;;-3.50;99.90;;;;;;4443394;28;656145;-61
2020/12/01 01:42:08;;;;;;;91.50;36.53;;;-3.50;99.90;;;;;;4463851;28;658742;-61
2020/12/01 01:44:55;;;;;;;99.17;37.20;;;-3.50;99.90;;;;;;4443119;28;656884;-62
2020/12/01 01:47:43;;;;;;;119.07;38.35;;;-3.60;99.90;;;;;;4461595;28;658537;-61
2020/12/01 01:50:30;;;;;;;120.60;42.23;;;-3.60;99.90;;;;;;4432539;28;657618;-62
2020/12/01 01:53:17;;;;;;;109.65;40.80;;;-3.60;99.90;;;;;;4452631;28;658762;-62
2020/12/01 01:56:06;;;;;;;109.63;39.13;;;-3.60;99.90;;;;;;4434426;28;657507;-63
2020/12/01 01:58:54;;;;;;;111.27;41.43;;;-3.60;99.90;;;;;;4465875;28;658256;-62
2020/12/01 02:01:41;;;;;;;117.33;40.77;;;-3.60;99.90;;;;;;4438239;28;658638;-62
2020/12/01 02:04:29;;;;;;;112.93;39.40;;;-3.60;99.90;;;;;;4462485;28;658452;-61
2020/12/01 02:07:16;;;;;;;115.30;40.23;;;-3.60;99.90;;;;;;4442420;28;659208;-62
2020/12/01 02:10:04;;;;;;;105.23;36.10;;;-3.60;99.90;;;;;;4457112;28;657729;-61
2020/12/01 02:12:51;;;;;;;95.27;35.40;;;-3.70;99.90;;;;;;4433804;28;657526;-61
2020/12/01 02:15:39;;;;;;;98.40;36.17;;;-3.70;99.90;;;;;;4461633;28;657599;-61
2020/12/01 02:18:30;;;;;;;95.40;34.80;;;-3.70;99.90;;;;;;4442853;28;657320;-61
2020/12/01 02:21:29;;;;;;;105.27;37.37;;;-3.70;99.90;;;;;;4443026;28;657419;-61
2020/12/01 02:24:18;;;;;;;96.23;34.33;;;-3.70;99.90;;;;;;4406523;28;658947;-62
2020/12/01 02:27:06;;;;;;;94.97;32.43;;;-3.80;99.90;;;;;;4449347;28;656561;-61
2020/12/01 02:29:55;;;;;;;86.57;34.00;;;-3.80;99.90;;;;;;4464908;28;656580;-62
2020/12/01 02:32:42;;;;;;;94.47;35.00;;;-3.90;99.90;;;;;;4448021;28;657578;-62
2020/12/01 02:35:29;;;;;;;95.33;34.73;;;-3.90;99.90;;;;;;4444008;28;656565;-62
2020/12/01 02:38:16;;;;;;;91.90;34.27;;;-3.90;99.90;;;;;;4474742;28;656080;-62
2020/12/01 02:41:03;;;;;;;84.63;32.17;;;-3.90;99.90;;;;;;4463616;28;657472;-62
2020/12/01 02:43:51;;;;;;;88.50;32.07;;;-4.00;99.90;;;;;;4444734;28;656582;-61
2020/12/01 02:46:38;;;;;;;102.53;32.60;;;-4.00;99.90;;;;;;4458655;28;657050;-61
2020/12/01 02:49:25;;;;;;;88.23;32.73;;;-4.00;99.90;;;;;;4450047;28;658675;-61
2020/12/01 02:52:12;;;;;;;99.00;32.85;;;-4.00;99.90;;;;;;4466059;28;657532;-61
2020/12/01 02:54:59;;;;;;;75.40;30.17;;;-3.90;99.90;;;;;;4461330;28;657701;-62
2020/12/01 02:57:46;;;;;;;86.78;32.88;;;-4.00;99.90;;;;;;4468794;28;656495;-61
2020/12/01 03:00:34;;;;;;;84.10;31.60;;;-4.00;99.90;;;;;;4470348;28;656733;-62
2020/12/01 03:03:21;;;;;;;82.83;32.30;;;-4.00;99.90;;;;;;4442291;28;658606;-61
2020/12/01 03:06:08;;;;;;;85.63;31.83;;;-4.00;99.90;;;;;;4469628;28;656505;-61
2020/12/01 03:08:55;;;;;;;90.80;32.53;;;-4.00;99.90;;;;;;4446692;28;656626;-62
2020/12/01 03:11:42;;;;;;;76.87;29.77;;;-4.00;99.90;;;;;;4469212;28;657551;-61
2020/12/01 03:14:29;;;;;;;88.77;31.43;;;-4.10;99.90;;;;;;4445261;28;656818;-62
2020/12/01 03:17:17;;;;;;;86.10;29.87;;;-4.10;99.90;;;;;;4468056;28;657425;-61
2020/12/01 03:20:04;;;;;;;80.13;28.40;;;-4.20;99.90;;;;;;4447241;28;656801;-63
2020/12/01 03:22:51;;;;;;;77.23;28.87;;;-4.20;99.90;;;;;;4470307;28;656325;-61
2020/12/01 03:25:38;;;;;;;95.43;32.20;;;-4.20;99.90;;;;;;4463692;28;657038;-61
2020/12/01 03:28:25;;;;;;;90.95;31.80;;;-4.10;99.90;;;;;;4441209;28;657342;-61
2020/12/01 03:31:13;;;;;;;71.97;26.93;;;-4.10;99.90;;;;;;4460548;28;657735;-61
2020/12/01 03:34:01;;;;;;;73.23;26.67;;;-4.20;99.90;;;;;;4446126;28;656635;-61
2020/12/01 03:36:48;;;;;;;74.47;27.40;;;-4.20;99.90;;;;;;4462420;28;656764;-61
2020/12/01 03:39:35;;;;;;;84.97;27.50;;;-4.20;99.90;;;;;;4450339;28;656694;-62
2020/12/01 03:42:22;;;;;;;82.03;28.77;;;-4.20;99.90;;;;;;4472731;28;657558;-61
2020/12/01 03:45:09;;;;;;;82.00;28.60;;;-4.20;99.90;;;;;;4469427;28;657488;-61
2020/12/01 03:47:56;;;;;;;78.53;27.20;;;-4.20;99.90;;;;;;4446131;28;657587;-62
2020/12/01 03:50:44;;;;;;;65.17;25.77;;;-4.20;99.90;;;;;;4463431;28;657131;-61
2020/12/01 03:53:31;;;;;;;75.40;25.87;;;-4.20;99.90;;;;;;4446623;28;656719;-61
2020/12/01 03:56:18;;;;;;;69.80;25.03;;;-4.20;99.90;;;;;;4463897;28;657908;-61
2020/12/01 03:59:05;;;;;;;66.13;25.13;;;-4.20;99.90;;;;;;4449803;28;656646;-62
2020/12/01 04:01:52;;;;;;;67.20;24.90;;;-4.30;99.90;;;;;;4462574;28;658579;-61
2020/12/01 04:04:39;;;;;;;68.22;25.70;;;-4.30;99.90;;;;;;4450110;28;656409;-62
2020/12/01 04:07:27;;;;;;;65.10;25.30;;;-4.30;99.90;;;;;;4467594;28;657143;-61
2020/12/01 04:10:16;;;;;;;64.63;23.35;;;-4.30;99.90;;;;;;4454519;28;656518;-62
2020/12/01 04:13:03;;;;;;;69.93;24.57;;;-4.40;99.90;;;;;;4463395;28;658128;-61
2020/12/01 04:15:49;;;;;;;59.87;22.53;;;-4.40;99.90;;;;;;4449766;28;656622;-62
2020/12/01 04:18:37;;;;;;;59.75;21.90;;;-4.40;99.90;;;;;;4472947;28;657069;-62
2020/12/01 04:21:23;;;;;;;59.17;21.97;;;-4.40;99.90;;;;;;4460612;28;657316;-61
2020/12/01 04:24:11;;;;;;;78.27;25.43;;;-4.40;99.90;;;;;;4449970;28;656603;-62
2020/12/01 04:26:58;;;;;;;73.07;25.57;;;-4.40;99.90;;;;;;4468562;28;657223;-61
2020/12/01 04:29:45;;;;;;;61.33;22.73;;;-4.40;99.90;;;;;;4441147;28;656732;-61
2020/12/01 04:32:32;;;;;;;57.37;22.63;;;-4.20;99.90;;;;;;4464937;28;657771;-61
2020/12/01 04:35:20;;;;;;;64.60;23.90;;;-4.40;99.90;;;;;;4447493;28;656548;-62
2020/12/01 04:38:07;;;;;;;62.00;24.50;;;-4.50;99.90;;;;;;4472083;28;657272;-62
2020/12/01 04:40:55;;;;;;;60.73;23.60;;;-4.50;99.90;;;;;;4443676;28;656568;-63
2020/12/01 04:43:43;;;;;;;63.80;22.73;;;-4.50;99.90;;;;;;4469017;28;657168;-61
2020/12/01 04:46:33;;;;;;;63.35;23.90;;;-4.50;99.90;;;;;;4448629;28;656576;-61
2020/12/01 04:49:23;;;;;;;64.03;24.60;;;-4.50;99.90;;;;;;4446557;28;656621;-61
2020/12/01 04:52:23;;;;;;;68.20;26.17;;;-4.50;99.90;;;;;;4449387;28;656650;-61
2020/12/01 04:55:19;;;;;;;73.37;26.30;;;-4.50;99.90;;;;;;4418759;28;657238;-61
2020/12/01 04:58:38;;;;;;;65.07;24.23;;;-4.50;99.90;;;;;;4415271;28;657136;-62
2020/12/01 05:01:43;;;;;;;58.03;22.63;;;-4.50;99.90;;;;;;4330957;28;658637;-61
2020/12/01 05:04:33;;;;;;;66.50;21.93;;;-4.40;99.90;;;;;;4337490;28;656741;-61
2020/12/01 05:07:30;;;;;;;57.00;21.83;;;-4.40;99.90;;;;;;4360683;28;656413;-63
2020/12/01 05:10:18;;;;;;;59.10;22.30;;;-4.40;99.90;;;;;;4330600;28;656860;-61
2020/12/01 05:13:15;;;;;;;60.30;22.17;;;-4.40;99.90;;;;;;4358846;28;656100;-63
2020/12/01 05:16:13;;;;;;;69.07;23.23;;;-4.30;99.90;;;;;;4328536;28;657781;-62
2020/12/01 05:19:00;;;;;;;63.83;22.07;;;-4.30;99.90;;;;;;4327628;28;657394;-62
2020/12/01 05:21:47;;;;;;;62.13;22.00;;;-4.40;99.90;;;;;;4376869;28;657358;-61
2020/12/01 05:24:43;;;;;;;61.20;22.97;;;-4.40;99.90;;;;;;4376700;28;656622;-62
2020/12/01 05:27:31;;;;;;;75.80;24.27;;;-4.50;99.90;;;;;;4332247;28;657122;-63
2020/12/01 05:30:21;;;;;;;67.20;24.03;;;-4.50;99.90;;;;;;4371839;28;657703;-62
2020/12/01 05:33:20;;;;;;;66.60;24.63;;;-4.60;99.90;;;;;;4350505;28;657217;-61
2020/12/01 05:36:17;;;;;;;70.20;23.63;;;-4.60;99.90;;;;;;4359641;28;656986;-61
2020/12/01 05:39:06;;;;;;;72.03;24.33;;;-4.60;99.90;;;;;;4378012;28;656570;-62
2020/12/01 05:42:01;;;;;;;71.30;23.33;;;-4.70;99.90;;;;;;4428582;28;657014;-61
2020/12/01 05:44:56;;;;;;;99.73;27.00;;;-4.70;99.90;;;;;;4444675;28;656292;-61
2020/12/01 05:47:46;;;;;;;70.27;25.17;;;-4.60;99.90;;;;;;4441308;28;656639;-60
2020/12/01 05:50:34;;;;;;;73.47;23.80;;;-4.60;99.90;;;;;;4448704;28;657432;-61
2020/12/01 05:53:22;;;;;;;63.00;21.40;;;-4.50;99.90;;;;;;4442736;28;658011;-61
2020/12/01 05:56:15;;;;;;;57.30;20.50;;;-4.50;99.90;;;;;;4456749;28;656582;-62
2020/12/01 05:59:04;;;;;;;54.30;19.57;;;-4.50;99.90;;;;;;4448642;28;657273;-61
2020/12/01 06:01:51;;;;;;;45.73;17.17;;;-4.50;99.90;;;;;;4450986;28;656359;-62
2020/12/01 06:04:38;;;;;;;53.77;18.37;;;-4.40;99.90;;;;;;4470992;28;657046;-62
2020/12/01 06:07:27;;;;;;;52.90;19.10;;;-4.40;99.90;;;;;;4451949;28;656606;-62
2020/12/01 06:10:22;;;;;;;54.93;19.33;;;-4.40;99.90;;;;;;4470486;28;656330;-61
2020/12/01 06:13:33;;;;;;;55.17;21.13;;;-4.40;99.90;;;;;;4434787;28;656448;-62
2020/12/01 06:16:34;;;;;;;70.20;26.02;;;-4.40;99.90;;;;;;4420719;28;657863;-61
2020/12/01 06:19:29;;;;;;;66.47;21.83;;;-4.40;99.90;;;;;;4417955;28;657526;-61
2020/12/01 06:22:46;;;;;;;55.58;20.10;;;-4.40;99.90;;;;;;4427415;28;657835;-62
2020/12/01 06:25:54;;;;;;;62.65;21.08;;;-4.40;99.90;;;;;;4445086;28;656473;-62
2020/12/01 06:29:06;;;;;;;56.50;19.40;;;-4.40;99.90;;;;;;4419063;28;657123;-62
2020/12/01 06:32:10;;;;;;;61.33;20.40;;;-4.50;99.90;;;;;;4437910;28;657111;-62
2020/12/01 06:35:20;;;;;;;59.73;20.70;;;-4.50;99.90;;;;;;4436948;28;657340;-62
2020/12/01 06:38:15;;;;;;;52.60;20.40;;;-4.50;99.90;;;;;;4420575;28;657282;-61
2020/12/01 06:41:03;;;;;;;59.67;21.67;;;-4.40;99.90;;;;;;4447139;28;657384;-61
2020/12/01 06:43:52;;;;;;;61.57;22.40;;;-4.40;99.90;;;;;;4450912;28;656519;-62
2020/12/01 06:46:42;;;;;;;50.60;20.60;;;-4.30;99.90;;;;;;4464833;28;656260;-63
2020/12/01 06:49:31;;;;;;;55.25;20.38;;;-4.30;99.90;;;;;;4441457;28;656488;-63
2020/12/01 06:52:18;;;;;;;48.10;17.40;;;-4.20;99.90;;;;;;4469256;28;656401;-62
2020/12/01 06:55:06;;;;;;;42.17;15.87;;;-4.20;99.90;;;;;;4454043;27;656651;-62
2020/12/01 06:57:53;;;;;;;34.40;13.37;;;-4.10;99.90;;;;;;4469574;28;657288;-62
2020/12/01 07:00:40;;;;;;;45.63;16.37;;;-4.00;99.90;;;;;;4449606;28;656638;-62
2020/12/01 07:03:27;;;;;;;42.93;16.33;;;-3.90;99.90;;;;;;4470171;28;657790;-62
2020/12/01 07:06:17;;;;;;;42.33;15.30;;;-3.80;99.90;;;;;;4469910;28;656716;-62
2020/12/01 07:09:05;;;;;;;45.10;16.77;;;-3.70;99.90;;;;;;4446901;28;657554;-62
2020/12/01 07:12:10;;;;;;;43.10;17.27;;;-3.60;99.90;;;;;;4446577;28;657804;-62
2020/12/01 07:15:06;;;;;;;42.27;15.50;;;-3.50;99.90;;;;;;4428107;28;657432;-62
2020/12/01 07:17:59;;;;;;;44.73;17.37;;;-3.40;99.90;;;;;;4437561;28;657398;-62
2020/12/01 07:21:02;;;;;;;48.63;18.93;;;-3.40;99.90;;;;;;4419034;28;657068;-62
2020/12/01 07:23:53;;;;;;;54.17;20.52;;;-3.30;99.90;;;;;;4436476;28;656353;-63
2020/12/01 07:26:42;;;;;;;51.07;18.97;;;-3.20;99.90;;;;;;4448490;28;656505;-63
2020/12/01 07:29:42;;;;;;;45.47;18.97;;;-3.20;99.90;;;;;;4455943;28;657795;-63
2020/12/01 07:32:30;;;;;;;43.43;17.80;;;-3.00;99.90;;;;;;4435477;28;657386;-62
2020/12/01 07:35:30;;;;;;;44.33;17.47;;;-2.90;99.90;;;;;;4445538;28;658190;-61
2020/12/01 07:38:23;;;;;;;53.97;17.53;;;-2.80;99.90;;;;;;4446496;28;657113;-62
2020/12/01 07:41:15;;;;;;;42.03;17.20;;;-2.70;99.90;;;;;;4449326;28;657157;-63
2020/12/01 07:44:04;;;;;;;35.47;14.50;;;-2.50;99.90;;;;;;4443707;28;657212;-62
2020/12/01 07:47:05;;;;;;;37.13;14.67;;;-2.30;99.90;;;;;;4445054;28;656399;-62
2020/12/01 07:49:59;;;;;;;39.03;15.63;;;-2.10;99.90;;;;;;4416184;28;658027;-62
2020/12/01 07:52:47;;;;;;;38.53;15.37;;;-1.90;99.90;;;;;;4422583;28;657587;-63
2020/12/01 07:55:37;;;;;;;34.87;14.33;;;-1.80;99.90;;;;;;4457956;28;656759;-63
2020/12/01 07:58:24;;;;;;;32.13;13.93;;;-1.70;99.90;;;;;;4453609;28;656043;-62
2020/12/01 08:01:16;;;;;;;36.03;14.93;;;-1.60;99.90;;;;;;4445835;28;658363;-62
2020/12/01 08:04:07;;;;;;;41.43;14.37;;;-1.40;99.90;;;;;;4438634;28;657437;-63
2020/12/01 08:06:58;;;;;;;33.65;13.52;;;-1.30;99.90;;;;;;4448136;28;657349;-63
2020/12/01 08:09:45;;;;;;;36.47;15.50;;;-1.10;99.90;;;;;;4446088;28;656443;-62
2020/12/01 08:12:35;;;;;;;40.60;16.20;;;-0.60;99.90;;;;;;4464155;28;657779;-63
2020/12/01 08:15:22;;;;;;;46.23;15.60;;;-0.10;99.90;;;;;;4436376;28;658026;-63
2020/12/01 08:18:12;;;;;;;40.83;15.32;;;0.90;99.90;;;;;;4442857;28;656533;-64
2020/12/01 08:20:59;;;;;;;37.50;15.90;;;1.70;99.90;;;;;;4445635;28;655513;-64
2020/12/01 08:23:46;;;;;;;37.00;15.40;;;2.30;99.90;;;;;;4469245;28;655351;-63
2020/12/01 08:26:36;;;;;;;32.78;14.10;;;2.70;99.90;;;;;;4463979;28;655898;-63
2020/12/01 08:29:24;;;;;;;35.80;14.80;;;2.90;99.90;;;;;;4446438;28;655703;-63
2020/12/01 08:32:18;;;;;;;31.27;14.30;;;3.40;99.90;;;;;;4436436;28;656790;-63
2020/12/01 08:35:09;;;;;;;37.93;16.80;;;3.90;99.90;;;;;;4410728;28;656167;-63
2020/12/01 08:38:02;;;;;;;36.87;14.33;;;4.40;99.90;;;;;;4440843;28;655992;-63
2020/12/01 08:40:51;;;;;;;33.83;14.00;;;4.40;99.90;;;;;;4438741;28;656304;-63
2020/12/01 08:43:41;;;;;;;29.70;13.00;;;5.20;99.90;;;;;;4439576;28;655945;-63
2020/12/01 08:46:29;;;;;;;32.33;14.53;;;5.50;94.50;;;;;;4435038;28;655789;-63
2020/12/01 08:49:40;;;;;;;27.70;12.57;;;5.70;98.40;;;;;;4449849;28;656254;-63
2020/12/01 08:52:34;;;;;;;27.73;12.30;;;6.10;91.10;;;;;;4443672;28;656211;-63
2020/12/01 08:55:24;;;;;;;32.10;14.07;;;6.30;86.70;;;;;;4417781;28;656263;-63
2020/12/01 08:58:16;;;;;;;37.10;16.10;;;6.70;92.60;;;;;;4440582;28;655982;-63
2020/12/01 09:01:05;;;;;;;44.93;19.13;;;6.90;67.60;;;;;;4438707;28;655454;-63
2020/12/01 09:03:54;;;;;;;48.87;18.90;;;7.10;78.60;;;;;;4444998;28;657257;-63
2020/12/01 09:06:41;;;;;;;38.03;16.27;;;7.30;69.90;;;;;;4443505;28;656730;-63
2020/12/01 09:09:32;;;;;;;39.97;17.40;;;7.10;71.80;;;;;;4463792;28;655670;-63
2020/12/01 09:12:25;;;;;;;38.80;16.70;;;7.30;71.30;;;;;;4443703;28;655811;-62
2020/12/01 09:15:25;;;;;;;38.80;17.30;;;7.90;63.20;;;;;;4445098;28;655796;-63
2020/12/01 09:18:32;;;;;;;40.70;16.97;;;8.20;58.00;;;;;;4420533;28;656883;-63
2020/12/01 09:24:44;;;;;;;38.00;16.73;;;7.90;59.70;;;;;;4386184;28;656496;-63
2020/12/01 09:27:35;;;;;;;39.10;16.53;;;8.50;63.50;;;;;;4414885;28;657035;-63
2020/12/01 09:30:34;;;;;;;35.47;16.57;;;8.50;61.10;;;;;;4404189;28;656574;-64
2020/12/01 09:33:22;;;;;;;37.67;17.03;;;9.00;57.00;;;;;;4377850;28;656867;-64
2020/12/01 09:36:15;;;;;;;35.05;16.80;;;9.40;56.10;;;;;;4415903;28;655581;-63
2020/12/01 09:39:02;;;;;;;37.50;16.37;;;9.60;50.70;;;;;;4406834;28;656660;-63
2020/12/01 09:42:00;;;;;;;32.10;15.37;;;9.60;51.40;;;;;;4416133;28;656108;-63
2020/12/01 09:47:54;;;;;;;33.25;15.43;;;9.70;49.10;;;;;;4386146;28;656645;-62
2020/12/01 09:50:46;;;;;;;36.80;15.87;;;10.10;49.00;;;;;;4407544;28;657344;-62
2020/12/01 09:53:46;;;;;;;41.70;18.90;;;10.60;45.40;;;;;;4397573;28;657739;-62
2020/12/01 09:56:40;;;;;;;39.17;17.63;;;10.60;45.00;;;;;;4410190;28;657271;-63
2020/12/01 09:59:37;;;;;;;33.83;15.57;;;10.60;47.60;;;;;;4401644;28;657167;-63
2020/12/01 10:03:01;;;;;;;33.13;16.30;;;10.70;46.00;;;;;;4381667;28;656639;-63
2020/12/01 10:08:52;;;;;;;36.67;16.60;;;11.40;45.10;;;;;;4427639;28;656748;-63
2020/12/01 10:36:58;;;;;;;38.07;19.40;;;12.20;41.60;;;;;;4260988;29;656629;-61
2020/12/01 10:39:45;;;;;;;35.40;18.27;;;12.00;42.30;;;;;;4279158;29;656516;-62
2020/12/01 10:42:32;;;;;;;37.57;19.17;;;12.00;42.50;;;;;;4297071;29;658018;-62
2020/12/01 10:45:20;;;;;;;34.00;15.13;;;12.10;42.60;;;;;;4290482;29;656515;-62
2020/12/01 10:48:08;;;;;;;35.07;18.67;;;12.30;41.60;;;;;;4295548;29;658039;-61
2020/12/01 10:50:55;;;;;;;40.47;18.47;;;12.50;41.00;;;;;;4274556;29;656414;-62
2020/12/01 10:53:42;;;;;;;37.90;18.37;;;13.30;39.30;;;;;;4290354;28;658342;-61
2020/12/01 10:56:29;;;;;;;41.90;21.10;;;13.10;41.40;;;;;;4342420;28;656965;-60
2020/12/01 10:59:16;;;;;;;31.30;15.67;;;13.60;41.10;;;;;;4324540;28;656396;-62
2020/12/01 11:02:03;;;;;;;25.83;14.33;;;13.90;38.40;;;;;;4339771;28;657654;-62
2020/12/01 11:04:51;;;;;;;29.73;15.00;;;14.20;37.30;;;;;;4352932;28;656360;-62
2020/12/01 11:07:38;;;;;;;26.97;13.13;;;14.10;37.30;;;;;;4395209;28;656709;-60
2020/12/01 11:10:25;;;;;;;28.47;14.80;;;13.90;37.10;;;;;;4376764;28;656911;-62
2020/12/01 11:13:12;;;;;;;27.93;13.97;;;14.50;36.90;;;;;;4438534;28;657631;-61
2020/12/01 11:15:59;;;;;;;23.67;12.23;;;14.40;35.80;;;;;;4462298;28;656341;-61
2020/12/01 11:18:46;;;;;;;27.20;13.23;;;15.10;35.40;;;;;;4448178;28;656405;-61
2020/12/01 11:21:35;;;;;;;29.87;14.47;;;15.30;34.80;;;;;;4469383;28;658392;-61
2020/12/01 11:24:24;;;;;;;33.57;15.60;;;14.90;35.30;;;;;;4446932;28;657675;-60
2020/12/01 11:27:11;;;;;;;33.87;15.17;;;14.50;35.00;;;;;;4448764;28;656431;-60
2020/12/01 11:29:58;;;;;;;32.77;14.77;;;14.80;34.00;;;;;;4463577;28;658492;-61
2020/12/01 11:32:45;;;;;;;28.27;15.10;;;15.00;35.00;;;;;;4441844;28;657560;-61
2020/12/01 11:35:32;;;;;;;29.27;15.43;;;15.10;35.00;;;;;;4472557;28;657241;-60
2020/12/01 11:38:20;;;;;;;29.80;14.90;;;15.10;34.80;;;;;;4449961;28;656577;-62
2020/12/01 11:41:07;;;;;;;26.27;13.53;;;15.40;33.10;;;;;;4469954;28;658556;-60
2020/12/01 11:43:54;;;;;;;24.10;12.30;;;16.40;32.20;;;;;;4452323;28;656827;-62
2020/12/01 11:46:42;;;;;;;24.10;12.77;;;16.40;32.20;;;;;;4473784;27;656620;-60
2020/12/01 11:49:29;;;;;;;25.83;13.03;;;16.90;32.20;;;;;;4470149;28;657733;-60
2020/12/01 11:52:16;;;;;;;26.00;13.37;;;16.40;33.10;;;;;;4447960;28;657017;-61
2020/12/01 11:55:04;;;;;;;24.57;12.27;;;16.80;31.70;;;;;;4455656;28;658430;-60
2020/12/01 11:57:51;;;;;;;29.50;14.53;;;16.60;31.50;;;;;;4446317;28;657769;-60
2020/12/01 12:00:38;;;;;;;23.57;12.83;;;16.20;32.60;;;;;;4467598;28;657641;-61
2020/12/01 12:03:25;;;;;;;24.40;13.23;;;16.50;32.60;;;;;;4446740;28;656542;-60
2020/12/01 12:06:12;;;;;;;25.63;14.47;;;16.30;33.90;;;;;;4457640;28;657185;-61
2020/12/01 12:08:59;;;;;;;29.30;13.20;;;16.20;33.10;;;;;;4454047;27;656564;-62
2020/12/01 12:11:47;;;;;;;25.07;13.93;;;16.00;32.50;;;;;;4460473;28;656587;-61
2020/12/01 12:14:34;;;;;;;25.80;14.97;;;15.70;32.80;;;;;;4449404;28;656749;-61
2020/12/01 12:17:21;;;;;;;24.70;14.23;;;15.50;33.60;;;;;;4465629;28;656095;-60
2020/12/01 12:20:08;;;;;;;30.33;17.13;;;16.20;33.30;;;;;;4468956;28;656844;-60
2020/12/01 12:22:55;;;;;;;28.43;14.00;;;16.60;32.40;;;;;;4450058;28;656459;-60
2020/12/01 12:25:43;;;;;;;29.07;15.20;;;17.30;29.80;;;;;;4469512;28;657005;-60
2020/12/01 12:28:31;;;;;;;27.10;14.70;;;17.10;30.00;;;;;;4450282;28;658176;-61
2020/12/01 12:31:18;;;;;;;27.07;14.80;;;16.50;31.50;;;;;;4469299;28;656868;-61
2020/12/01 12:34:05;;;;;;;23.03;13.43;;;16.80;32.10;;;;;;4449993;28;656593;-60
2020/12/01 12:36:56;;;;;;;22.17;13.07;;;15.90;30.30;;;;;;4456808;28;657734;-61
2020/12/01 12:39:43;;;;;;;22.90;13.07;;;15.60;32.00;;;;;;4446488;28;656387;-61
2020/12/01 12:42:30;;;;;;;24.00;13.00;;;14.70;32.20;;;;;;4443160;28;656470;-60
2020/12/01 12:45:18;;;;;;;22.30;12.43;;;14.80;34.00;;;;;;4472226;28;658493;-60
2020/12/01 12:48:05;;;;;;;23.50;12.97;;;15.00;33.20;;;;;;4453343;28;656645;-60
2020/12/01 12:50:52;;;;;;;22.93;12.30;;;14.70;34.40;;;;;;4475658;28;657997;-60
2020/12/01 12:53:39;;;;;;;24.90;13.10;;;13.60;36.10;;;;;;4459242;28;656477;-61
2020/12/01 12:56:26;;;;;;;24.97;14.10;;;13.00;36.30;;;;;;4476668;28;656267;-61
2020/12/01 12:59:14;;;;;;;24.87;13.50;;;13.00;37.10;;;;;;4472705;28;657336;-59
2020/12/01 13:02:01;;;;;;;25.93;13.47;;;13.30;36.10;;;;;;4449492;28;656583;-60
2020/12/01 13:04:48;;;;;;;28.40;14.17;;;13.50;35.20;;;;;;4472427;28;656758;-59
2020/12/01 13:07:35;;;;;;;32.30;15.67;;;12.80;36.20;;;;;;4453021;28;656764;-60
2020/12/01 13:10:22;;;;;;;38.03;18.50;;;12.40;36.80;;;;;;4467108;28;658152;-60
2020/12/01 13:13:09;;;;;;;33.70;17.07;;;12.00;37.60;;;;;;4453880;28;656751;-60
2020/12/01 13:15:56;;;;;;;29.90;15.10;;;11.70;38.00;;;;;;4475484;28;657973;-60
2020/12/01 13:18:44;;;;;;;30.67;15.43;;;11.80;38.60;;;;;;4471794;28;658048;-59
2020/12/01 13:21:33;;;;;;;26.83;14.60;;;11.90;38.90;;;;;;4445654;28;657639;-59
2020/12/01 13:24:20;;;;;;;25.83;14.83;;;11.90;39.30;;;;;;4453479;28;656560;-60
2020/12/01 13:27:07;;;;;;;34.30;16.93;;;12.30;38.30;;;;;;4471642;28;658366;-59
2020/12/01 13:29:54;;;;;;;36.13;18.17;;;12.30;38.10;;;;;;4467723;28;656547;-61
2020/12/01 13:32:41;;;;;;;50.23;21.90;;;11.80;38.40;;;;;;4470695;28;656766;-60
2020/12/01 13:35:29;;;;;;;40.87;19.37;;;11.80;39.20;;;;;;4466486;28;657438;-59
2020/12/01 13:38:16;;;;;;;43.50;21.97;;;12.00;38.80;;;;;;4440290;28;657933;-60
2020/12/01 13:41:03;;;;;;;39.03;19.77;;;12.40;39.20;;;;;;4467048;28;657656;-60
2020/12/01 13:43:50;;;;;;;33.87;16.70;;;11.80;38.30;;;;;;4429923;28;656523;-59
2020/12/01 13:46:37;;;;;;;39.70;20.80;;;11.50;41.00;;;;;;4468777;28;657961;-59
2020/12/01 13:49:24;;;;;;;67.18;27.50;;;11.90;40.20;;;;;;4452871;28;656823;-60
2020/12/01 13:52:13;;;;;;;53.33;22.87;;;11.20;39.70;;;;;;4461072;28;656264;-59
2020/12/01 13:55:01;;;;;;;45.37;20.00;;;10.70;43.20;;;;;;4451790;28;656480;-60
2020/12/01 13:57:48;;;;;;;40.97;20.10;;;10.60;43.20;;;;;;4471164;28;658847;-60
2020/12/01 14:00:35;;;;;;;34.90;16.90;;;11.20;43.30;;;;;;4459371;27;656376;-60
2020/12/01 14:03:22;;;;;;;41.73;17.63;;;11.40;42.10;;;;;;4471333;28;658008;-59
2020/12/01 14:06:09;;;;;;;39.17;17.80;;;11.50;41.20;;;;;;4465481;28;656335;-59
2020/12/01 14:08:57;;;;;;;34.90;16.70;;;10.90;40.80;;;;;;4452915;28;656647;-59
2020/12/01 14:11:44;;;;;;;36.13;18.20;;;8.60;47.10;;;;;;4467889;28;656732;-59
2020/12/01 14:14:31;;;;;;;45.40;20.43;;;7.00;52.30;;;;;;4452263;28;655640;-59
2020/12/01 14:17:18;;;;;;;38.33;17.67;;;5.70;62.30;;;;;;4458504;28;656796;-58
2020/12/01 14:20:05;;;;;;;44.90;20.10;;;4.70;92.10;;;;;;4453274;28;655367;-60
2020/12/01 14:22:52;;;;;;;42.70;20.30;;;3.90;99.90;;;;;;4471621;28;656290;-59
2020/12/01 14:25:40;;;;;;;41.40;17.20;;;3.40;99.90;;;;;;4448252;28;655439;-59
2020/12/01 14:28:27;;;;;;;45.88;18.77;;;2.80;99.90;;;;;;4459950;28;656988;-58
2020/12/01 14:31:15;;;;;;;45.28;18.90;;;2.20;99.90;;;;;;4438348;28;655804;-59
2020/12/01 14:34:02;;;;;;;42.73;18.70;;;1.70;99.90;;;;;;4463088;28;656985;-58
2020/12/01 14:36:49;;;;;;;54.13;20.40;;;1.30;99.90;;;;;;4462388;28;655404;-58
2020/12/01 14:39:36;;;;;;;48.07;20.07;;;0.90;99.90;;;;;;4429592;28;655502;-58
2020/12/01 14:42:24;;;;;;;78.10;31.87;;;0.60;99.90;;;;;;4459884;28;657094;-58
2020/12/01 14:45:11;;;;;;;86.20;32.37;;;0.30;99.90;;;;;;4444336;28;655016;-58